sensor_id;sensor_type;location;lat;lon;timestamp;P1;durP1;ratioP1;P2;durP2;ratioP2
69502;SDS011;56704;54.242;12.442;2023-07-08T06:37:57;5.68;;;2.70;;
69502;SDS011;56704;54.242;12.442;2023-07-08T06:40:24;7.22;;;2.97;;
69502;SDS011;56704;54.242;12.442;2023-07-08T06:42:53;4.90;;;2.60;;
69502;SDS011;56704;54.242;12.442;2023-07-08T06:45:20;5.88;;;2.50;;
69502;SDS011;56704;54.242;12.442;2023-07-08T06:47:47;3.97;;;2.00;;
69502;SDS011;56704;54.242;12.442;2023-07-08T06:50:14;4.82;;;2.10;;
69502;SDS011;56704;54.242;12.442;2023-07-08T06:52:40;6.22;;;2.30;;
69502;SDS011;56704;54.242;12.442;2023-07-08T06:55:09;6.22;;;2.30;;
69502;SDS011;56704;54.242;12.442;2023-07-08T06:57:36;5.72;;;2.70;;
69502;SDS011;56704;54.242;12.442;2023-07-08T07:00:04;5.07;;;2.07;;
69502;SDS011;56704;54.242;12.442;2023-07-08T07:02:32;5.80;;;2.17;;
69502;SDS011;56704;54.242;12.442;2023-07-08T07:04:59;4.75;;;2.33;;
69502;SDS011;56704;54.242;12.442;2023-07-08T07:07:26;7.32;;;2.97;;
69502;SDS011;56704;54.242;12.442;2023-07-08T07:09:53;6.07;;;2.28;;
69502;SDS011;56704;54.242;12.442;2023-07-08T07:12:21;6.50;;;2.40;;
69502;SDS011;56704;54.242;12.442;2023-07-08T07:14:48;4.60;;;2.38;;
69502;SDS011;56704;54.242;12.442;2023-07-08T07:17:17;4.90;;;2.60;;
69502;SDS011;56704;54.242;12.442;2023-07-08T07:19:44;4.65;;;2.03;;
69502;SDS011;56704;54.242;12.442;2023-07-08T07:22:11;4.65;;;2.20;;
69502;SDS011;56704;54.242;12.442;2023-07-08T07:24:37;6.20;;;2.63;;
69502;SDS011;56704;54.242;12.442;2023-07-08T07:27:04;5.18;;;2.30;;
69502;SDS011;56704;54.242;12.442;2023-07-08T07:29:39;4.97;;;2.28;;
69502;SDS011;56704;54.242;12.442;2023-07-08T07:32:08;5.47;;;2.10;;
69502;SDS011;56704;54.242;12.442;2023-07-08T07:34:35;5.32;;;2.08;;
69502;SDS011;56704;54.242;12.442;2023-07-08T07:37:01;5.80;;;2.07;;
69502;SDS011;56704;54.242;12.442;2023-07-08T07:39:28;4.60;;;2.40;;
69502;SDS011;56704;54.242;12.442;2023-07-08T07:41:55;7.15;;;2.33;;
69502;SDS011;56704;54.242;12.442;2023-07-08T07:44:22;5.38;;;2.50;;
69502;SDS011;56704;54.242;12.442;2023-07-08T07:46:53;4.50;;;2.40;;
69502;SDS011;56704;54.242;12.442;2023-07-08T07:49:20;4.60;;;2.40;;
69502;SDS011;56704;54.242;12.442;2023-07-08T07:51:47;5.30;;;2.30;;
69502;SDS011;56704;54.242;12.442;2023-07-08T07:54:14;5.25;;;2.60;;
69502;SDS011;56704;54.242;12.442;2023-07-08T07:56:44;6.90;;;2.70;;
69502;SDS011;56704;54.242;12.442;2023-07-08T07:59:11;4.20;;;2.53;;
69502;SDS011;56704;54.242;12.442;2023-07-08T08:01:38;4.07;;;2.37;;
69502;SDS011;56704;54.242;12.442;2023-07-08T08:04:07;4.68;;;2.50;;
69502;SDS011;56704;54.242;12.442;2023-07-08T08:06:37;4.70;;;2.42;;
69502;SDS011;56704;54.242;12.442;2023-07-08T08:09:04;5.97;;;2.40;;
69502;SDS011;56704;54.242;12.442;2023-07-08T08:11:33;4.55;;;2.38;;
69502;SDS011;56704;54.242;12.442;2023-07-08T08:14:00;6.23;;;2.30;;
69502;SDS011;56704;54.242;12.442;2023-07-08T08:16:28;5.00;;;2.17;;
69502;SDS011;56704;54.242;12.442;2023-07-08T08:18:55;5.57;;;2.60;;
69502;SDS011;56704;54.242;12.442;2023-07-08T08:21:27;5.80;;;2.28;;
69502;SDS011;56704;54.242;12.442;2023-07-08T08:23:54;5.63;;;2.40;;
69502;SDS011;56704;54.242;12.442;2023-07-08T08:26:20;5.33;;;2.63;;
69502;SDS011;56704;54.242;12.442;2023-07-08T08:28:47;5.07;;;2.38;;
69502;SDS011;56704;54.242;12.442;2023-07-08T08:31:14;5.60;;;2.40;;
69502;SDS011;56704;54.242;12.442;2023-07-08T08:33:43;4.95;;;2.20;;
69502;SDS011;56704;54.242;12.442;2023-07-08T08:36:09;4.55;;;2.30;;
69502;SDS011;56704;54.242;12.442;2023-07-08T08:38:37;5.23;;;2.43;;
69502;SDS011;56704;54.242;12.442;2023-07-08T08:41:08;4.75;;;2.20;;
69502;SDS011;56704;54.242;12.442;2023-07-08T08:43:39;4.05;;;2.20;;
69502;SDS011;56704;54.242;12.442;2023-07-08T08:46:11;3.65;;;2.15;;
69502;SDS011;56704;54.242;12.442;2023-07-08T08:48:55;6.40;;;2.15;;
69502;SDS011;56704;54.242;12.442;2023-07-08T08:51:28;5.83;;;2.07;;
69502;SDS011;56704;54.242;12.442;2023-07-08T08:54:03;5.32;;;2.28;;
69502;SDS011;56704;54.242;12.442;2023-07-08T08:56:34;3.97;;;1.85;;
69502;SDS011;56704;54.242;12.442;2023-07-08T08:59:13;6.70;;;2.40;;
69502;SDS011;56704;54.242;12.442;2023-07-08T09:01:50;4.00;;;2.30;;
69502;SDS011;56704;54.242;12.442;2023-07-08T09:08:16;5.22;;;2.30;;
69502;SDS011;56704;54.242;12.442;2023-07-08T09:14:39;4.55;;;1.90;;
69502;SDS011;56704;54.242;12.442;2023-07-08T09:17:23;4.25;;;2.10;;
69502;SDS011;56704;54.242;12.442;2023-07-08T09:19:58;5.80;;;2.20;;
69502;SDS011;56704;54.242;12.442;2023-07-08T09:23:07;3.92;;;1.95;;
69502;SDS011;56704;54.242;12.442;2023-07-08T11:11:19;7.47;;;2.10;;
69502;SDS011;56704;54.242;12.442;2023-07-08T11:20:58;4.25;;;2.47;;
69502;SDS011;56704;54.242;12.442;2023-07-08T11:37:00;5.00;;;2.40;;
69502;SDS011;56704;54.242;12.442;2023-07-08T11:39:38;5.88;;;2.65;;
69502;SDS011;56704;54.242;12.442;2023-07-08T11:42:19;4.32;;;2.55;;
69502;SDS011;56704;54.242;12.442;2023-07-08T11:46:06;4.60;;;2.13;;
69502;SDS011;56704;54.242;12.442;2023-07-08T12:17:31;4.65;;;2.47;;
69502;SDS011;56704;54.242;12.442;2023-07-08T12:20:19;4.15;;;2.40;;
69502;SDS011;56704;54.242;12.442;2023-07-08T12:42:15;4.03;;;2.33;;
69502;SDS011;56704;54.242;12.442;2023-07-08T12:44:51;4.30;;;2.40;;
69502;SDS011;56704;54.242;12.442;2023-07-08T12:50:19;4.82;;;2.40;;
69502;SDS011;56704;54.242;12.442;2023-07-08T12:52:53;5.38;;;1.90;;
69502;SDS011;56704;54.242;12.442;2023-07-08T12:55:35;4.22;;;2.20;;
69502;SDS011;56704;54.242;12.442;2023-07-08T12:58:14;4.97;;;2.27;;
69502;SDS011;56704;54.242;12.442;2023-07-08T13:00:59;5.13;;;2.25;;
69502;SDS011;56704;54.242;12.442;2023-07-08T13:03:35;6.40;;;2.15;;
69502;SDS011;56704;54.242;12.442;2023-07-08T13:06:12;5.72;;;2.10;;
69502;SDS011;56704;54.242;12.442;2023-07-08T13:08:48;4.63;;;2.05;;
69502;SDS011;56704;54.242;12.442;2023-07-08T13:11:43;3.17;;;1.83;;
69502;SDS011;56704;54.242;12.442;2023-07-08T13:14:22;3.28;;;1.80;;
69502;SDS011;56704;54.242;12.442;2023-07-08T13:16:51;4.32;;;1.85;;
69502;SDS011;56704;54.242;12.442;2023-07-08T13:19:21;4.40;;;2.10;;
69502;SDS011;56704;54.242;12.442;2023-07-08T13:21:52;4.40;;;2.00;;
69502;SDS011;56704;54.242;12.442;2023-07-08T13:24:24;3.83;;;1.77;;
69502;SDS011;56704;54.242;12.442;2023-07-08T13:27:08;4.22;;;1.80;;
69502;SDS011;56704;54.242;12.442;2023-07-08T13:29:49;4.18;;;2.17;;
69502;SDS011;56704;54.242;12.442;2023-07-08T13:32:37;4.05;;;1.85;;
69502;SDS011;56704;54.242;12.442;2023-07-08T13:37:55;4.20;;;2.00;;
69502;SDS011;56704;54.242;12.442;2023-07-08T13:40:26;6.22;;;2.85;;
69502;SDS011;56704;54.242;12.442;2023-07-08T13:42:56;12.40;;;7.45;;
69502;SDS011;56704;54.242;12.442;2023-07-08T13:45:27;12.63;;;10.07;;
69502;SDS011;56704;54.242;12.442;2023-07-08T13:48:20;12.35;;;10.63;;
69502;SDS011;56704;54.242;12.442;2023-07-08T13:50:53;17.17;;;14.73;;
69502;SDS011;56704;54.242;12.442;2023-07-08T13:53:24;20.67;;;16.90;;
69502;SDS011;56704;54.242;12.442;2023-07-08T13:55:59;20.95;;;16.83;;
69502;SDS011;56704;54.242;12.442;2023-07-08T13:58:30;23.02;;;17.85;;
69502;SDS011;56704;54.242;12.442;2023-07-08T14:01:01;19.23;;;13.90;;
69502;SDS011;56704;54.242;12.442;2023-07-08T14:03:35;15.30;;;10.57;;
69502;SDS011;56704;54.242;12.442;2023-07-08T14:06:04;11.20;;;8.70;;
69502;SDS011;56704;54.242;12.442;2023-07-08T14:08:54;10.50;;;7.15;;
69502;SDS011;56704;54.242;12.442;2023-07-08T14:11:29;10.88;;;6.15;;
69502;SDS011;56704;54.242;12.442;2023-07-08T14:13:55;7.72;;;4.68;;
69502;SDS011;56704;54.242;12.442;2023-07-08T14:19:16;6.20;;;3.80;;
69502;SDS011;56704;54.242;12.442;2023-07-08T14:21:46;5.65;;;3.00;;
69502;SDS011;56704;54.242;12.442;2023-07-08T14:24:23;5.75;;;2.80;;
69502;SDS011;56704;54.242;12.442;2023-07-08T14:27:14;3.70;;;2.20;;
69502;SDS011;56704;54.242;12.442;2023-07-08T14:29:42;4.60;;;2.00;;
69502;SDS011;56704;54.242;12.442;2023-07-08T14:32:20;4.82;;;2.20;;
69502;SDS011;56704;54.242;12.442;2023-07-08T14:34:52;6.18;;;2.10;;
69502;SDS011;56704;54.242;12.442;2023-07-08T14:37:22;5.70;;;1.90;;
69502;SDS011;56704;54.242;12.442;2023-07-08T14:39:49;5.60;;;2.00;;
69502;SDS011;56704;54.242;12.442;2023-07-08T14:42:17;4.67;;;1.63;;
69502;SDS011;56704;54.242;12.442;2023-07-08T14:44:45;5.20;;;2.00;;
69502;SDS011;56704;54.242;12.442;2023-07-08T14:47:16;6.50;;;2.35;;
69502;SDS011;56704;54.242;12.442;2023-07-08T14:49:46;7.43;;;2.38;;
69502;SDS011;56704;54.242;12.442;2023-07-08T14:52:13;3.60;;;1.70;;
69502;SDS011;56704;54.242;12.442;2023-07-08T14:54:40;9.07;;;1.93;;
69502;SDS011;56704;54.242;12.442;2023-07-08T14:57:06;3.58;;;2.10;;
69502;SDS011;56704;54.242;12.442;2023-07-08T14:59:35;5.10;;;2.15;;
69502;SDS011;56704;54.242;12.442;2023-07-08T15:02:20;4.90;;;2.20;;
69502;SDS011;56704;54.242;12.442;2023-07-08T15:04:49;5.80;;;2.05;;
69502;SDS011;56704;54.242;12.442;2023-07-08T15:07:18;4.60;;;1.97;;
69502;SDS011;56704;54.242;12.442;2023-07-08T15:09:47;6.93;;;2.25;;
69502;SDS011;56704;54.242;12.442;2023-07-08T15:12:14;4.45;;;2.00;;
69502;SDS011;56704;54.242;12.442;2023-07-08T15:14:40;4.28;;;1.98;;
69502;SDS011;56704;54.242;12.442;2023-07-08T15:17:14;3.85;;;2.00;;
69502;SDS011;56704;54.242;12.442;2023-07-08T15:19:53;5.80;;;1.80;;
69502;SDS011;56704;54.242;12.442;2023-07-08T15:22:20;5.93;;;2.08;;
69502;SDS011;56704;54.242;12.442;2023-07-08T15:24:47;5.25;;;1.70;;
69502;SDS011;56704;54.242;12.442;2023-07-08T15:27:17;12.48;;;2.20;;
69502;SDS011;56704;54.242;12.442;2023-07-08T15:29:47;5.55;;;2.10;;
69502;SDS011;56704;54.242;12.442;2023-07-08T15:32:14;4.13;;;2.00;;
69502;SDS011;56704;54.242;12.442;2023-07-08T15:34:41;4.30;;;1.63;;
69502;SDS011;56704;54.242;12.442;2023-07-08T15:37:09;6.30;;;2.00;;
69502;SDS011;56704;54.242;12.442;2023-07-08T15:39:38;6.88;;;2.50;;
69502;SDS011;56704;54.242;12.442;2023-07-08T15:42:07;5.45;;;1.98;;
69502;SDS011;56704;54.242;12.442;2023-07-08T15:44:44;5.17;;;2.27;;
69502;SDS011;56704;54.242;12.442;2023-07-08T15:47:19;6.38;;;3.30;;
69502;SDS011;56704;54.242;12.442;2023-07-08T15:49:46;5.15;;;2.15;;
69502;SDS011;56704;54.242;12.442;2023-07-08T15:52:14;5.53;;;2.00;;
69502;SDS011;56704;54.242;12.442;2023-07-08T15:54:41;4.03;;;1.92;;
69502;SDS011;56704;54.242;12.442;2023-07-08T15:57:08;3.60;;;1.63;;
69502;SDS011;56704;54.242;12.442;2023-07-08T15:59:38;5.38;;;1.80;;
69502;SDS011;56704;54.242;12.442;2023-07-08T16:02:12;4.22;;;2.00;;
69502;SDS011;56704;54.242;12.442;2023-07-08T16:04:53;5.95;;;2.00;;
69502;SDS011;56704;54.242;12.442;2023-07-08T16:07:21;5.10;;;1.70;;
69502;SDS011;56704;54.242;12.442;2023-07-08T16:09:49;4.07;;;1.50;;
69502;SDS011;56704;54.242;12.442;2023-07-08T16:12:20;4.22;;;1.70;;
69502;SDS011;56704;54.242;12.442;2023-07-08T16:15:00;4.97;;;2.20;;
69502;SDS011;56704;54.242;12.442;2023-07-08T16:17:27;3.35;;;1.58;;
69502;SDS011;56704;54.242;12.442;2023-07-08T16:19:59;4.28;;;1.88;;
69502;SDS011;56704;54.242;12.442;2023-07-08T16:22:27;6.80;;;1.80;;
69502;SDS011;56704;54.242;12.442;2023-07-08T16:24:54;4.38;;;2.30;;
69502;SDS011;56704;54.242;12.442;2023-07-08T16:27:20;4.13;;;1.75;;
69502;SDS011;56704;54.242;12.442;2023-07-08T16:29:47;6.25;;;2.00;;
69502;SDS011;56704;54.242;12.442;2023-07-08T16:32:15;3.72;;;2.00;;
69502;SDS011;56704;54.242;12.442;2023-07-08T16:34:42;6.03;;;1.83;;
69502;SDS011;56704;54.242;12.442;2023-07-08T16:37:12;4.82;;;1.92;;
69502;SDS011;56704;54.242;12.442;2023-07-08T16:39:40;5.57;;;1.95;;
69502;SDS011;56704;54.242;12.442;2023-07-08T16:42:08;5.45;;;1.73;;
69502;SDS011;56704;54.242;12.442;2023-07-08T16:44:39;7.32;;;2.03;;
69502;SDS011;56704;54.242;12.442;2023-07-08T16:47:07;3.97;;;1.87;;
69502;SDS011;56704;54.242;12.442;2023-07-08T16:49:35;6.97;;;1.80;;
69502;SDS011;56704;54.242;12.442;2023-07-08T16:52:02;4.63;;;1.77;;
69502;SDS011;56704;54.242;12.442;2023-07-08T16:54:35;4.15;;;1.60;;
69502;SDS011;56704;54.242;12.442;2023-07-08T16:57:03;4.78;;;2.00;;
69502;SDS011;56704;54.242;12.442;2023-07-08T16:59:31;4.17;;;1.87;;
69502;SDS011;56704;54.242;12.442;2023-07-08T17:01:58;3.63;;;1.77;;
69502;SDS011;56704;54.242;12.442;2023-07-08T17:04:28;8.13;;;1.65;;
69502;SDS011;56704;54.242;12.442;2023-07-08T17:06:55;5.20;;;1.80;;
69502;SDS011;56704;54.242;12.442;2023-07-08T17:09:22;6.35;;;1.80;;
69502;SDS011;56704;54.242;12.442;2023-07-08T17:11:49;5.20;;;1.60;;
69502;SDS011;56704;54.242;12.442;2023-07-08T17:14:17;5.88;;;1.90;;
69502;SDS011;56704;54.242;12.442;2023-07-08T17:16:44;7.15;;;2.20;;
69502;SDS011;56704;54.242;12.442;2023-07-08T17:19:13;5.22;;;1.80;;
69502;SDS011;56704;54.242;12.442;2023-07-08T17:21:39;4.55;;;1.90;;
69502;SDS011;56704;54.242;12.442;2023-07-08T17:24:08;5.07;;;1.63;;
69502;SDS011;56704;54.242;12.442;2023-07-08T17:26:36;5.35;;;1.90;;
69502;SDS011;56704;54.242;12.442;2023-07-08T17:29:03;5.63;;;1.83;;
69502;SDS011;56704;54.242;12.442;2023-07-08T17:31:31;4.25;;;1.73;;
69502;SDS011;56704;54.242;12.442;2023-07-08T17:33:58;7.50;;;2.00;;
69502;SDS011;56704;54.242;12.442;2023-07-08T17:36:29;5.13;;;2.10;;
69502;SDS011;56704;54.242;12.442;2023-07-08T17:38:57;5.32;;;2.30;;
69502;SDS011;56704;54.242;12.442;2023-07-08T17:41:25;4.13;;;1.80;;
69502;SDS011;56704;54.242;12.442;2023-07-08T17:43:52;3.97;;;1.77;;
69502;SDS011;56704;54.242;12.442;2023-07-08T17:46:20;4.60;;;1.98;;
69502;SDS011;56704;54.242;12.442;2023-07-08T17:48:49;4.40;;;1.90;;
69502;SDS011;56704;54.242;12.442;2023-07-08T17:51:17;3.17;;;1.60;;
69502;SDS011;56704;54.242;12.442;2023-07-08T17:53:45;6.00;;;2.00;;
69502;SDS011;56704;54.242;12.442;2023-07-08T17:56:14;4.40;;;1.85;;
69502;SDS011;56704;54.242;12.442;2023-07-08T17:58:44;3.83;;;1.50;;
69502;SDS011;56704;54.242;12.442;2023-07-08T18:01:11;4.03;;;1.40;;
69502;SDS011;56704;54.242;12.442;2023-07-08T18:03:38;5.47;;;1.83;;
69502;SDS011;56704;54.242;12.442;2023-07-08T18:06:06;5.00;;;2.03;;
69502;SDS011;56704;54.242;12.442;2023-07-08T18:08:33;4.85;;;1.90;;
69502;SDS011;56704;54.242;12.442;2023-07-08T18:10:59;4.95;;;1.70;;
69502;SDS011;56704;54.242;12.442;2023-07-08T18:13:26;4.83;;;1.60;;
69502;SDS011;56704;54.242;12.442;2023-07-08T18:15:59;4.03;;;1.88;;
69502;SDS011;56704;54.242;12.442;2023-07-08T18:18:26;4.53;;;1.63;;
69502;SDS011;56704;54.242;12.442;2023-07-08T18:20:53;5.30;;;1.65;;
69502;SDS011;56704;54.242;12.442;2023-07-08T18:23:22;7.60;;;1.95;;
69502;SDS011;56704;54.242;12.442;2023-07-08T18:25:50;3.47;;;1.50;;
69502;SDS011;56704;54.242;12.442;2023-07-08T18:28:16;5.50;;;2.13;;
69502;SDS011;56704;54.242;12.442;2023-07-08T18:30:43;6.10;;;1.95;;
69502;SDS011;56704;54.242;12.442;2023-07-08T18:33:11;5.60;;;1.95;;
69502;SDS011;56704;54.242;12.442;2023-07-08T18:35:39;5.00;;;1.90;;
69502;SDS011;56704;54.242;12.442;2023-07-08T18:38:06;4.80;;;1.87;;
69502;SDS011;56704;54.242;12.442;2023-07-08T18:40:36;6.57;;;2.00;;
69502;SDS011;56704;54.242;12.442;2023-07-08T18:43:09;4.63;;;1.83;;
69502;SDS011;56704;54.242;12.442;2023-07-08T18:45:41;4.78;;;1.80;;
69502;SDS011;56704;54.242;12.442;2023-07-08T18:48:09;4.03;;;1.70;;
69502;SDS011;56704;54.242;12.442;2023-07-08T18:50:37;6.87;;;1.80;;
69502;SDS011;56704;54.242;12.442;2023-07-08T18:53:08;4.97;;;1.88;;
69502;SDS011;56704;54.242;12.442;2023-07-08T18:55:38;5.15;;;1.80;;
69502;SDS011;56704;54.242;12.442;2023-07-08T18:58:07;5.85;;;1.90;;
69502;SDS011;56704;54.242;12.442;2023-07-08T19:00:36;5.93;;;1.92;;
69502;SDS011;56704;54.242;12.442;2023-07-08T19:03:04;5.23;;;1.67;;
69502;SDS011;56704;54.242;12.442;2023-07-08T19:05:33;6.70;;;1.77;;
69502;SDS011;56704;54.242;12.442;2023-07-08T19:07:59;4.68;;;1.88;;
69502;SDS011;56704;54.242;12.442;2023-07-08T19:10:27;4.35;;;1.70;;
69502;SDS011;56704;54.242;12.442;2023-07-08T19:12:58;4.65;;;1.90;;
69502;SDS011;56704;54.242;12.442;2023-07-08T19:15:26;5.13;;;1.83;;
69502;SDS011;56704;54.242;12.442;2023-07-08T19:17:55;5.55;;;1.98;;
69502;SDS011;56704;54.242;12.442;2023-07-08T19:20:23;6.80;;;1.90;;
69502;SDS011;56704;54.242;12.442;2023-07-08T19:22:52;4.43;;;1.95;;
69502;SDS011;56704;54.242;12.442;2023-07-08T19:25:19;4.80;;;2.00;;
69502;SDS011;56704;54.242;12.442;2023-07-08T19:27:47;5.97;;;1.77;;
69502;SDS011;56704;54.242;12.442;2023-07-08T19:30:15;6.05;;;1.70;;
69502;SDS011;56704;54.242;12.442;2023-07-08T19:32:44;3.80;;;1.63;;
69502;SDS011;56704;54.242;12.442;2023-07-08T19:35:15;5.15;;;1.70;;
69502;SDS011;56704;54.242;12.442;2023-07-08T19:37:44;4.72;;;1.88;;
69502;SDS011;56704;54.242;12.442;2023-07-08T19:40:12;4.50;;;1.67;;
69502;SDS011;56704;54.242;12.442;2023-07-08T19:42:40;6.03;;;2.28;;
69502;SDS011;56704;54.242;12.442;2023-07-08T19:45:20;4.22;;;1.70;;
69502;SDS011;56704;54.242;12.442;2023-07-08T19:47:48;5.38;;;1.80;;
69502;SDS011;56704;54.242;12.442;2023-07-08T19:50:15;4.60;;;1.92;;
69502;SDS011;56704;54.242;12.442;2023-07-08T19:52:42;4.97;;;2.13;;
69502;SDS011;56704;54.242;12.442;2023-07-08T19:55:09;5.63;;;1.90;;
69502;SDS011;56704;54.242;12.442;2023-07-08T19:57:40;6.00;;;2.33;;
69502;SDS011;56704;54.242;12.442;2023-07-08T20:00:14;5.47;;;2.10;;
69502;SDS011;56704;54.242;12.442;2023-07-08T20:03:01;6.78;;;2.15;;
69502;SDS011;56704;54.242;12.442;2023-07-08T20:05:29;5.53;;;1.53;;
69502;SDS011;56704;54.242;12.442;2023-07-08T20:07:58;6.75;;;1.73;;
69502;SDS011;56704;54.242;12.442;2023-07-08T20:10:26;7.50;;;2.00;;
69502;SDS011;56704;54.242;12.442;2023-07-08T20:12:54;5.07;;;1.90;;
69502;SDS011;56704;54.242;12.442;2023-07-08T20:15:23;6.00;;;1.98;;
69502;SDS011;56704;54.242;12.442;2023-07-08T20:17:51;4.50;;;1.70;;
69502;SDS011;56704;54.242;12.442;2023-07-08T20:20:19;5.50;;;1.98;;
69502;SDS011;56704;54.242;12.442;2023-07-08T20:22:47;5.95;;;1.90;;
69502;SDS011;56704;54.242;12.442;2023-07-08T20:25:15;4.40;;;2.05;;
69502;SDS011;56704;54.242;12.442;2023-07-08T20:27:42;5.22;;;1.98;;
69502;SDS011;56704;54.242;12.442;2023-07-08T20:30:13;6.20;;;1.87;;
69502;SDS011;56704;54.242;12.442;2023-07-08T20:32:42;4.80;;;1.83;;
69502;SDS011;56704;54.242;12.442;2023-07-08T20:35:10;4.20;;;1.80;;
69502;SDS011;56704;54.242;12.442;2023-07-08T20:37:37;4.22;;;1.90;;
69502;SDS011;56704;54.242;12.442;2023-07-08T20:40:05;5.22;;;1.73;;
69502;SDS011;56704;54.242;12.442;2023-07-08T20:42:39;5.13;;;1.90;;
69502;SDS011;56704;54.242;12.442;2023-07-08T20:45:08;6.72;;;1.80;;
69502;SDS011;56704;54.242;12.442;2023-07-08T20:47:35;6.07;;;2.20;;
69502;SDS011;56704;54.242;12.442;2023-07-08T20:50:05;4.22;;;1.88;;
69502;SDS011;56704;54.242;12.442;2023-07-08T20:52:38;5.95;;;2.30;;
69502;SDS011;56704;54.242;12.442;2023-07-08T20:55:05;6.63;;;2.30;;
69502;SDS011;56704;54.242;12.442;2023-07-08T20:57:32;5.88;;;2.05;;
69502;SDS011;56704;54.242;12.442;2023-07-08T20:59:58;8.73;;;2.28;;
69502;SDS011;56704;54.242;12.442;2023-07-08T21:02:25;4.93;;;2.25;;
69502;SDS011;56704;54.242;12.442;2023-07-08T21:04:52;8.80;;;2.20;;
69502;SDS011;56704;54.242;12.442;2023-07-08T21:07:20;7.07;;;2.10;;
69502;SDS011;56704;54.242;12.442;2023-07-08T21:09:47;6.70;;;1.67;;
69502;SDS011;56704;54.242;12.442;2023-07-08T21:12:14;8.45;;;2.30;;
69502;SDS011;56704;54.242;12.442;2023-07-08T21:14:41;6.85;;;2.22;;
69502;SDS011;56704;54.242;12.442;2023-07-08T21:17:10;6.90;;;1.90;;
69502;SDS011;56704;54.242;12.442;2023-07-08T21:19:41;6.20;;;2.20;;
69502;SDS011;56704;54.242;12.442;2023-07-08T21:22:08;6.57;;;2.15;;
69502;SDS011;56704;54.242;12.442;2023-07-08T21:24:37;6.05;;;1.95;;
69502;SDS011;56704;54.242;12.442;2023-07-08T21:27:04;5.75;;;2.25;;
69502;SDS011;56704;54.242;12.442;2023-07-08T21:29:31;10.77;;;2.30;;
69502;SDS011;56704;54.242;12.442;2023-07-08T21:31:58;7.07;;;2.30;;
69502;SDS011;56704;54.242;12.442;2023-07-08T21:34:24;5.28;;;2.10;;
69502;SDS011;56704;54.242;12.442;2023-07-08T21:36:51;7.43;;;2.45;;
69502;SDS011;56704;54.242;12.442;2023-07-08T21:39:19;6.18;;;2.58;;
69502;SDS011;56704;54.242;12.442;2023-07-08T21:41:48;6.68;;;2.40;;
69502;SDS011;56704;54.242;12.442;2023-07-08T21:44:15;5.00;;;2.00;;
69502;SDS011;56704;54.242;12.442;2023-07-08T21:46:43;5.13;;;2.13;;
69502;SDS011;56704;54.242;12.442;2023-07-08T21:49:09;5.78;;;2.15;;
69502;SDS011;56704;54.242;12.442;2023-07-08T21:51:36;6.65;;;2.10;;
69502;SDS011;56704;54.242;12.442;2023-07-08T21:54:03;5.78;;;2.13;;
69502;SDS011;56704;54.242;12.442;2023-07-08T21:56:30;5.47;;;2.00;;
69502;SDS011;56704;54.242;12.442;2023-07-08T21:58:58;6.30;;;2.20;;
69502;SDS011;56704;54.242;12.442;2023-07-08T22:01:26;5.75;;;2.28;;
69502;SDS011;56704;54.242;12.442;2023-07-08T22:03:59;4.50;;;2.10;;
69502;SDS011;56704;54.242;12.442;2023-07-08T22:06:26;5.78;;;1.98;;
69502;SDS011;56704;54.242;12.442;2023-07-08T22:08:53;7.40;;;2.10;;
69502;SDS011;56704;54.242;12.442;2023-07-08T22:11:21;5.57;;;2.30;;
69502;SDS011;56704;54.242;12.442;2023-07-08T22:13:53;5.18;;;1.92;;
69502;SDS011;56704;54.242;12.442;2023-07-08T22:16:23;6.10;;;2.33;;
69502;SDS011;56704;54.242;12.442;2023-07-08T22:18:51;7.35;;;2.20;;
69502;SDS011;56704;54.242;12.442;2023-07-08T22:21:19;7.60;;;2.13;;
69502;SDS011;56704;54.242;12.442;2023-07-08T22:23:53;5.20;;;2.03;;
69502;SDS011;56704;54.242;12.442;2023-07-08T22:26:20;5.68;;;2.15;;
69502;SDS011;56704;54.242;12.442;2023-07-08T22:28:46;5.22;;;2.10;;
69502;SDS011;56704;54.242;12.442;2023-07-08T22:34:10;4.63;;;1.90;;
69502;SDS011;56704;54.242;12.442;2023-07-08T22:36:38;6.53;;;1.73;;
69502;SDS011;56704;54.242;12.442;2023-07-08T22:39:06;6.50;;;2.08;;
69502;SDS011;56704;54.242;12.442;2023-07-08T22:41:39;4.45;;;1.80;;
69502;SDS011;56704;54.242;12.442;2023-07-08T22:44:07;6.13;;;2.40;;
69502;SDS011;56704;54.242;12.442;2023-07-08T22:46:35;4.70;;;2.00;;
69502;SDS011;56704;54.242;12.442;2023-07-08T22:49:03;5.30;;;2.20;;
69502;SDS011;56704;54.242;12.442;2023-07-08T22:51:31;6.05;;;1.95;;
69502;SDS011;56704;54.242;12.442;2023-07-08T22:54:02;5.93;;;2.03;;
69502;SDS011;56704;54.242;12.442;2023-07-08T22:56:31;7.80;;;2.78;;
69502;SDS011;56704;54.242;12.442;2023-07-08T22:58:57;6.87;;;2.00;;
69502;SDS011;56704;54.242;12.442;2023-07-08T23:01:24;5.70;;;2.30;;
69502;SDS011;56704;54.242;12.442;2023-07-08T23:03:50;5.63;;;2.10;;
69502;SDS011;56704;54.242;12.442;2023-07-08T23:06:18;5.03;;;1.92;;
69502;SDS011;56704;54.242;12.442;2023-07-08T23:08:49;4.97;;;2.20;;
69502;SDS011;56704;54.242;12.442;2023-07-08T23:11:15;7.67;;;2.40;;
69502;SDS011;56704;54.242;12.442;2023-07-08T23:13:43;5.72;;;2.33;;
69502;SDS011;56704;54.242;12.442;2023-07-08T23:16:16;4.63;;;2.13;;
69502;SDS011;56704;54.242;12.442;2023-07-08T23:18:49;5.05;;;2.20;;
69502;SDS011;56704;54.242;12.442;2023-07-08T23:21:19;6.80;;;2.20;;
69502;SDS011;56704;54.242;12.442;2023-07-08T23:23:48;6.90;;;2.37;;
69502;SDS011;56704;54.242;12.442;2023-07-08T23:26:15;6.80;;;2.08;;
69502;SDS011;56704;54.242;12.442;2023-07-08T23:28:44;5.72;;;2.25;;
69502;SDS011;56704;54.242;12.442;2023-07-08T23:31:13;5.53;;;2.60;;
69502;SDS011;56704;54.242;12.442;2023-07-08T23:33:39;7.68;;;2.63;;
69502;SDS011;56704;54.242;12.442;2023-07-08T23:36:08;5.13;;;2.20;;
69502;SDS011;56704;54.242;12.442;2023-07-08T23:38:44;6.10;;;2.63;;
69502;SDS011;56704;54.242;12.442;2023-07-08T23:41:11;7.68;;;2.33;;
69502;SDS011;56704;54.242;12.442;2023-07-08T23:43:37;7.70;;;2.28;;
69502;SDS011;56704;54.242;12.442;2023-07-08T23:46:10;5.22;;;2.50;;
69502;SDS011;56704;54.242;12.442;2023-07-08T23:48:37;5.63;;;2.27;;
69502;SDS011;56704;54.242;12.442;2023-07-08T23:51:04;5.47;;;2.13;;
69502;SDS011;56704;54.242;12.442;2023-07-08T23:53:31;5.35;;;2.20;;
69502;SDS011;56704;54.242;12.442;2023-07-08T23:55:59;6.50;;;2.50;;
69502;SDS011;56704;54.242;12.442;2023-07-08T23:58:25;6.15;;;2.20;;
